Logo AVAMET
Benvolgut visitant, si us plau, ingressa Recuperar contrasenya

Elx Vallverda Ermita Vella

Dades diàries. Acumulats / Últims 30 dies disponibles

Data Temperatura (°C) Humitat rel. (%) Pressió rel. (hPa) Vent (km/h) Precipitació
Mínima Mitjana Màxima Amplitud
tèrmica
Mínima Mitjana Màxima Mínima Mitjana Màxima Predom. Mitjana Ràfega
màxima
Total
(mm)
Índex-n
Mínima Mitjana Màxima Mínima Mitjana Màxima n
0 a 1
P0 max
mm 5'
Dades mensuals acumulades fins l'últim dia disponible
12/2019 7,5 10,1 13,6 13,7 14,2 18,0 21,5 14,0 29 73 98 1.002 1.017 1.026   5,7 53,1 50,6
Dades anuals acumulades fins l'últim dia disponible
2019 2,2 13,7 25,1 19,1 14,2 24,6 36,5 34,3 13 71 99 994 1.016 1.034   2,2 53,1 522,6
Últims 30 dies disponibles
15-12-2019 8,1     12,2     17,9 9,8 53 75 93 1.012 1.014 1.017 OSO 3,5 20,9 0,0
14-12-2019 12,8     16,3     19,1 6,3 52 58 66 1.015 1.016 1.017 NW 8,9 37,0 0,0
13-12-2019 13,3     17,8     19,9 6,6 49 57 66 1.010 1.012 1.015 WSW 9,2 35,4 0,0
12-12-2019 10,9     13,1     16,8 5,9 44 57 69 1.012 1.018 1.023 NW 6,1 40,2 0,0
11-12-2019 7,9     13,5     21,5 13,6 36 55 89 1.017 1.020 1.023 NW 6,6 43,5 0,0
10-12-2019 8,2     13,7     19,2 11,0 29 59 92 1.023 1.024 1.026 WNW 1,4 22,5 0,0
09-12-2019 13,6     16,5     21,4 7,8 34 55 73 1.021 1.024 1.026 NW 7,1 40,2 0,0
08-12-2019 7,5     12,9     19,3 11,8 58 78 96 1.021 1.023 1.024 WSW 1,0 25,7 0,0
07-12-2019 8,2     11,7     17,1 8,9 62 86 93 1.022 1.023 1.024 WNW 0,3 11,3 0,0
06-12-2019 10,6     13,3     17,1 6,5 64 84 92 1.020 1.021 1.023 WNW 1,3 17,7 0,0
05-12-2019 9,1     12,7     15,9 6,8 79 86 94 1.009 1.015 1.021 ENE 2,7 20,9 0,0
04-12-2019 10,1     12,1     14,5 4,4 72 86 94 1.002 1.005 1.009 WNW 2,4 29,0 16,0 0,33 0,60
03-12-2019 11,0     12,7     14,2 3,2 69 82 97 1.007 1.011 1.014 NE 21,1 53,1 17,6 0,37 0,70
02-12-2019 12,5     14,0     15,8 3,3 77 88 96 1.009 1.012 1.015 ENE 11,4 41,8 16,8 0,68 1,40
01-12-2019 7,9     13,3     20,3 12,4 50 84 98 1.009 1.011 1.014 NE 2,6 24,1 0,2
30-11-2019 10,9     15,0     21,0 10,1 56 81 94 1.014 1.018 1.021 OSO 2,1 20,9 0,0
29-11-2019 10,7     16,8     21,8 11,1 54 67 80 1.017 1.018 1.020 NW 3,5 32,2 0,0
28-11-2019 10,6     15,4     21,2 10,6 46 66 89 1.014 1.016 1.018 W 2,1 24,1 0,0
27-11-2019 10,7     16,4     23,1 12,4 38 69 94 1.009 1.011 1.014 WNW 2,9 30,6 0,0
26-11-2019 11,2     15,9     23,1 11,9 52 75 90 1.010 1.013 1.015 WSW 2,1 25,7 0,0
25-11-2019 10,5     15,8     22,2 11,7 53 67 78 1.012 1.014 1.015 WSW 2,3 24,1 0,0
24-11-2019 11,2     14,1     16,9 5,7 43 53 63 1.008 1.012 1.015 WNW 5,5 40,2 0,0
23-11-2019 10,3     14,1     17,2 6,9 42 65 98 994 1.000 1.008 WNW 8,0 48,3 0,2
22-11-2019 7,9     11,7     14,2 6,3 90 94 98 995 1.003 1.008 WSW 0,2 14,5 9,6
21-11-2019 7,1     11,6     16,3 9,2 63 85 95 1.008 1.009 1.011 SW 0,2 9,7 0,6
20-11-2019 5,3     10,8     16,3 11,0 52 76 94 1.009 1.012 1.015 WSW 0,8 16,1 0,8
19-11-2019 6,1     10,9     16,8 10,7 39 59 75 1.015 1.016 1.018 WNW 1,4 24,1 0,0
18-11-2019 8,1     12,5     17,2 9,1 45 68 95 1.006 1.010 1.016 NW 2,6 29,0 5,2
17-11-2019 6,4     12,1     17,8 11,4 37 56 83 1.009 1.013 1.016 WSW 4,7 30,6 1,8
16-11-2019 8,3     11,6     15,9 7,6 38 53 66 1.007 1.011 1.016 NW 4,7 33,8 0,0
Últims 13 mesos disponibles
11/2019 5,3 10,7 18,1 15,1 14,2 19,9 27,8 22,5 46 63 94 1.000 1.011 1.018 WSW 3,0 49,9 19,6
10/2019 9,6 14,4 20,3 19,5 15,9 25,3 30,1 20,5 51 78 94 1.008 1.016 1.021 WSW 0,4 32,2 45,4
09/2019 15,7 19,3 23,4 23,5 22,4 28,2 32,1 16,4 63 80 95 1.009 1.016 1.021 E 1,4 53,1 198,6
08/2019 18,4 21,2 24,5 26,3 28,2 31,4 36,1 17,7 61 75 84 1.009 1.014 1.019 E 2,0 27,4 56,8
07/2019 19,0 21,3 25,1 27,0 29,2 32,3 36,5 17,5 45 65 81 1.005 1.012 1.019 ESE 2,3 32,2 0,4
06/2019 11,2 16,1 19,9 22,5 23,9 28,0 35,9 24,7 48 69 90 1.008 1.014 1.021 ESE 2,1 35,4 0,2
05/2019 9,7 13,4 18,1 19,0 20,7 24,2 29,9 20,2 50 72 85 1.005 1.015 1.024 E 2,3 40,2 0,8
04/2019 6,5 10,6 13,9 15,6 14,8 21,2 29,6 23,1 52 72 92 999 1.012 1.025 W 2,3 40,2 130,8
03/2019 3,1 7,0 12,9 13,8 14,4 20,7 29,4 26,3 43 68 92 1.011 1.022 1.030 N 1,5 29,0 15,0
02/2019 2,2 5,5 11,0 11,7 14,6 18,7 25,5 23,3 35 69 82 997 1.024 1.032 NE 2,1 48,3 0,2
01/2019 6,7 9,7 12,6 14,5 17,8 19,9 22,6 15,9 40 53 68 1.004 1.012 1.017 4,4 49,9 4,2
Tots els anys disponibles
Temperatura (°C)
Humitat relativa (%)
Velocitat del vent i ràfega màxima (km/h)
Direcció del vent (°)
Pressió (hPa)
Precipitació (mm)
Nota sobre les dades: s'avisa a l'usuari de la provisionalitat i no oficialitat d'aquestes dades
Logo AVAMET blanc
Web allotjada a Sollutia
Llicència de Creative CommonsLa web d'AVAMET i els seus continguts estan subjectes a una llicència de
Reconeixement - No Comercial - Compartir igual
Últimes estacions: Chella - El Rincón (Soci), Aielo de Malferit - Centre (Soci), Faura (Inforatge), Benifairó de les Valls (Inforatge), Xàbia - Les Valls (Soci) - - -